sensor_id;sensor_type;location;lat;lon;timestamp;temperature;humidity
9410;DHT22;4744;52.576;13.568;2023-03-21T00:02:22;8.70;1.00
9410;DHT22;4744;52.576;13.568;2023-03-21T00:04:51;8.70;1.00
9410;DHT22;4744;52.576;13.568;2023-03-21T00:07:18;8.70;1.00
9410;DHT22;4744;52.576;13.568;2023-03-21T00:09:45;8.70;1.00
9410;DHT22;4744;52.576;13.568;2023-03-21T00:12:11;8.70;1.00
9410;DHT22;4744;52.576;13.568;2023-03-21T00:14:38;8.70;1.00
9410;DHT22;4744;52.576;13.568;2023-03-21T00:17:05;8.70;1.00
9410;DHT22;4744;52.576;13.568;2023-03-21T00:19:32;8.70;1.00
9410;DHT22;4744;52.576;13.568;2023-03-21T00:22:04;8.70;1.00
9410;DHT22;4744;52.576;13.568;2023-03-21T00:24:31;8.70;1.00
9410;DHT22;4744;52.576;13.568;2023-03-21T00:26:58;8.60;1.00
9410;DHT22;4744;52.576;13.568;2023-03-21T00:29:25;8.70;1.00
9410;DHT22;4744;52.576;13.568;2023-03-21T00:31:52;8.60;1.00
9410;DHT22;4744;52.576;13.568;2023-03-21T00:34:19;8.60;1.00
9410;DHT22;4744;52.576;13.568;2023-03-21T00:36:46;8.60;1.00
9410;DHT22;4744;52.576;13.568;2023-03-21T00:39:14;8.60;1.00
9410;DHT22;4744;52.576;13.568;2023-03-21T00:41:41;8.60;1.00
9410;DHT22;4744;52.576;13.568;2023-03-21T00:44:08;8.60;1.00
9410;DHT22;4744;52.576;13.568;2023-03-21T00:46:36;8.60;1.00
9410;DHT22;4744;52.576;13.568;2023-03-21T00:49:03;8.60;1.00
9410;DHT22;4744;52.576;13.568;2023-03-21T00:51:29;8.50;1.00
9410;DHT22;4744;52.576;13.568;2023-03-21T00:53:57;8.50;1.00
9410;DHT22;4744;52.576;13.568;2023-03-21T00:56:25;8.50;1.00
9410;DHT22;4744;52.576;13.568;2023-03-21T00:58:52;8.50;1.00
9410;DHT22;4744;52.576;13.568;2023-03-21T01:01:19;8.50;1.00
9410;DHT22;4744;52.576;13.568;2023-03-21T01:03:46;8.50;1.00
9410;DHT22;4744;52.576;13.568;2023-03-21T01:06:17;8.50;1.00
9410;DHT22;4744;52.576;13.568;2023-03-21T01:08:46;8.50;1.00
9410;DHT22;4744;52.576;13.568;2023-03-21T01:11:15;8.40;1.00
9410;DHT22;4744;52.576;13.568;2023-03-21T01:13:44;8.50;1.00
9410;DHT22;4744;52.576;13.568;2023-03-21T01:16:11;8.40;1.00
9410;DHT22;4744;52.576;13.568;2023-03-21T01:18:40;8.40;1.00
9410;DHT22;4744;52.576;13.568;2023-03-21T01:21:09;8.40;1.00
9410;DHT22;4744;52.576;13.568;2023-03-21T01:23:38;8.40;1.00
9410;DHT22;4744;52.576;13.568;2023-03-21T01:26:06;8.40;1.00
9410;DHT22;4744;52.576;13.568;2023-03-21T01:28:33;8.40;1.00
9410;DHT22;4744;52.576;13.568;2023-03-21T01:31:02;8.40;1.00
9410;DHT22;4744;52.576;13.568;2023-03-21T01:33:30;8.40;1.00
9410;DHT22;4744;52.576;13.568;2023-03-21T01:35:57;8.40;1.00
9410;DHT22;4744;52.576;13.568;2023-03-21T01:38:27;8.30;1.00
9410;DHT22;4744;52.576;13.568;2023-03-21T01:40:54;8.40;1.00
9410;DHT22;4744;52.576;13.568;2023-03-21T01:43:24;8.30;1.00
9410;DHT22;4744;52.576;13.568;2023-03-21T01:48:54;8.30;1.00
9410;DHT22;4744;52.576;13.568;2023-03-21T01:51:24;8.30;1.00
9410;DHT22;4744;52.576;13.568;2023-03-21T01:53:52;8.30;1.00
9410;DHT22;4744;52.576;13.568;2023-03-21T01:56:23;8.30;1.00
9410;DHT22;4744;52.576;13.568;2023-03-21T01:58:54;8.30;1.00
9410;DHT22;4744;52.576;13.568;2023-03-21T02:01:24;8.30;1.00
9410;DHT22;4744;52.576;13.568;2023-03-21T02:03:53;8.30;1.00
9410;DHT22;4744;52.576;13.568;2023-03-21T02:06:29;8.30;1.00
9410;DHT22;4744;52.576;13.568;2023-03-21T02:09:01;8.30;1.00
9410;DHT22;4744;52.576;13.568;2023-03-21T02:11:29;8.30;1.00
9410;DHT22;4744;52.576;13.568;2023-03-21T02:13:57;8.30;1.00
9410;DHT22;4744;52.576;13.568;2023-03-21T02:16:35;8.30;1.00
9410;DHT22;4744;52.576;13.568;2023-03-21T02:19:25;8.30;1.00
9410;DHT22;4744;52.576;13.568;2023-03-21T02:22:32;8.30;1.00
9410;DHT22;4744;52.576;13.568;2023-03-21T02:28:18;8.30;1.00
9410;DHT22;4744;52.576;13.568;2023-03-21T02:34:25;8.20;1.00
9410;DHT22;4744;52.576;13.568;2023-03-21T02:37:06;8.20;1.00
9410;DHT22;4744;52.576;13.568;2023-03-21T02:39:58;8.20;1.00
9410;DHT22;4744;52.576;13.568;2023-03-21T02:42:39;8.20;1.00
9410;DHT22;4744;52.576;13.568;2023-03-21T02:45:15;8.20;1.00
9410;DHT22;4744;52.576;13.568;2023-03-21T02:47:45;8.20;1.00
9410;DHT22;4744;52.576;13.568;2023-03-21T02:50:15;8.20;1.00
9410;DHT22;4744;52.576;13.568;2023-03-21T02:52:47;8.20;1.00
9410;DHT22;4744;52.576;13.568;2023-03-21T02:55:18;8.10;1.00
9410;DHT22;4744;52.576;13.568;2023-03-21T02:57:48;8.20;1.00
9410;DHT22;4744;52.576;13.568;2023-03-21T03:00:18;8.10;1.00
9410;DHT22;4744;52.576;13.568;2023-03-21T03:02:46;8.10;1.00
9410;DHT22;4744;52.576;13.568;2023-03-21T03:05:17;8.20;1.00
9410;DHT22;4744;52.576;13.568;2023-03-21T03:07:55;8.10;1.00
9410;DHT22;4744;52.576;13.568;2023-03-21T03:10:39;8.10;1.00
9410;DHT22;4744;52.576;13.568;2023-03-21T03:13:14;8.10;1.00
9410;DHT22;4744;52.576;13.568;2023-03-21T03:15:55;8.10;1.00
9410;DHT22;4744;52.576;13.568;2023-03-21T03:18:30;8.10;1.00
9410;DHT22;4744;52.576;13.568;2023-03-21T03:21:04;8.10;1.00
9410;DHT22;4744;52.576;13.568;2023-03-21T03:23:39;8.10;1.00
9410;DHT22;4744;52.576;13.568;2023-03-21T03:26:11;8.10;1.00
9410;DHT22;4744;52.576;13.568;2023-03-21T03:28:44;8.10;1.00
9410;DHT22;4744;52.576;13.568;2023-03-21T03:31:15;8.10;1.00
9410;DHT22;4744;52.576;13.568;2023-03-21T03:33:48;8.10;1.00
9410;DHT22;4744;52.576;13.568;2023-03-21T03:36:19;8.10;1.00
9410;DHT22;4744;52.576;13.568;2023-03-21T03:38:49;8.10;1.00
9410;DHT22;4744;52.576;13.568;2023-03-21T03:41:20;8.10;1.00
9410;DHT22;4744;52.576;13.568;2023-03-21T03:43:50;8.10;1.00
9410;DHT22;4744;52.576;13.568;2023-03-21T03:46:24;8.10;1.00
9410;DHT22;4744;52.576;13.568;2023-03-21T03:48:54;8.10;1.00
9410;DHT22;4744;52.576;13.568;2023-03-21T03:51:26;8.10;1.00
9410;DHT22;4744;52.576;13.568;2023-03-21T03:53:57;8.10;1.00
9410;DHT22;4744;52.576;13.568;2023-03-21T03:56:26;8.10;1.00
9410;DHT22;4744;52.576;13.568;2023-03-21T03:58:54;8.10;1.00
9410;DHT22;4744;52.576;13.568;2023-03-21T04:01:21;8.00;1.00
9410;DHT22;4744;52.576;13.568;2023-03-21T04:03:48;8.00;1.00
9410;DHT22;4744;52.576;13.568;2023-03-21T04:06:16;8.00;1.00
9410;DHT22;4744;52.576;13.568;2023-03-21T04:08:43;8.00;1.00
9410;DHT22;4744;52.576;13.568;2023-03-21T04:11:12;8.00;1.00
9410;DHT22;4744;52.576;13.568;2023-03-21T04:13:40;8.00;1.00
9410;DHT22;4744;52.576;13.568;2023-03-21T04:16:07;8.00;1.00
9410;DHT22;4744;52.576;13.568;2023-03-21T04:18:36;8.00;1.00
9410;DHT22;4744;52.576;13.568;2023-03-21T04:21:07;8.00;1.00
9410;DHT22;4744;52.576;13.568;2023-03-21T04:23:35;8.00;1.00
9410;DHT22;4744;52.576;13.568;2023-03-21T04:26:03;8.00;1.00
9410;DHT22;4744;52.576;13.568;2023-03-21T04:28:32;8.00;1.00
9410;DHT22;4744;52.576;13.568;2023-03-21T04:31:00;7.90;1.00
9410;DHT22;4744;52.576;13.568;2023-03-21T04:33:28;7.90;1.00
9410;DHT22;4744;52.576;13.568;2023-03-21T04:35:55;8.00;1.00
9410;DHT22;4744;52.576;13.568;2023-03-21T04:38:24;8.00;1.00
9410;DHT22;4744;52.576;13.568;2023-03-21T04:40:55;7.90;1.00
9410;DHT22;4744;52.576;13.568;2023-03-21T04:43:22;7.90;1.00
9410;DHT22;4744;52.576;13.568;2023-03-21T04:45:51;7.90;1.00
9410;DHT22;4744;52.576;13.568;2023-03-21T04:48:18;7.90;1.00
9410;DHT22;4744;52.576;13.568;2023-03-21T04:50:49;7.90;1.00
9410;DHT22;4744;52.576;13.568;2023-03-21T04:53:16;7.90;1.00
9410;DHT22;4744;52.576;13.568;2023-03-21T04:55:43;7.90;1.00
9410;DHT22;4744;52.576;13.568;2023-03-21T04:58:10;7.90;1.00
9410;DHT22;4744;52.576;13.568;2023-03-21T05:00:37;7.90;1.00
9410;DHT22;4744;52.576;13.568;2023-03-21T05:03:06;7.80;1.00
9410;DHT22;4744;52.576;13.568;2023-03-21T05:05:34;7.80;1.00
9410;DHT22;4744;52.576;13.568;2023-03-21T05:08:01;7.80;1.00
9410;DHT22;4744;52.576;13.568;2023-03-21T05:10:28;7.80;1.00
9410;DHT22;4744;52.576;13.568;2023-03-21T05:12:55;7.80;1.00
9410;DHT22;4744;52.576;13.568;2023-03-21T05:15:22;7.80;1.00
9410;DHT22;4744;52.576;13.568;2023-03-21T05:17:49;7.80;1.00
9410;DHT22;4744;52.576;13.568;2023-03-21T05:20:18;7.80;1.00
9410;DHT22;4744;52.576;13.568;2023-03-21T05:22:45;7.80;1.00
9410;DHT22;4744;52.576;13.568;2023-03-21T05:25:14;7.80;1.00
9410;DHT22;4744;52.576;13.568;2023-03-21T05:27:42;7.80;1.00
9410;DHT22;4744;52.576;13.568;2023-03-21T05:30:12;7.80;1.00
9410;DHT22;4744;52.576;13.568;2023-03-21T05:32:40;7.80;1.00
9410;DHT22;4744;52.576;13.568;2023-03-21T05:35:09;7.80;1.00
9410;DHT22;4744;52.576;13.568;2023-03-21T05:37:37;7.80;1.00
9410;DHT22;4744;52.576;13.568;2023-03-21T05:40:06;7.80;1.00
9410;DHT22;4744;52.576;13.568;2023-03-21T05:42:33;7.80;1.00
9410;DHT22;4744;52.576;13.568;2023-03-21T05:45:00;7.80;1.00
9410;DHT22;4744;52.576;13.568;2023-03-21T05:47:27;7.90;1.00
9410;DHT22;4744;52.576;13.568;2023-03-21T05:49:54;7.90;1.00
9410;DHT22;4744;52.576;13.568;2023-03-21T05:52:22;7.90;1.00
9410;DHT22;4744;52.576;13.568;2023-03-21T05:54:50;7.90;1.00
9410;DHT22;4744;52.576;13.568;2023-03-21T05:57:17;7.90;1.00
9410;DHT22;4744;52.576;13.568;2023-03-21T05:59:44;7.90;1.00
9410;DHT22;4744;52.576;13.568;2023-03-21T06:02:11;7.90;1.00
9410;DHT22;4744;52.576;13.568;2023-03-21T06:04:38;7.90;1.00
9410;DHT22;4744;52.576;13.568;2023-03-21T06:07:05;7.90;1.00
9410;DHT22;4744;52.576;13.568;2023-03-21T06:09:32;7.90;1.00
9410;DHT22;4744;52.576;13.568;2023-03-21T06:12:01;7.90;1.00
9410;DHT22;4744;52.576;13.568;2023-03-21T06:14:28;8.00;1.00
9410;DHT22;4744;52.576;13.568;2023-03-21T06:16:54;8.00;1.00
9410;DHT22;4744;52.576;13.568;2023-03-21T06:19:21;8.00;1.00
9410;DHT22;4744;52.576;13.568;2023-03-21T06:21:48;8.10;1.00
9410;DHT22;4744;52.576;13.568;2023-03-21T06:24:15;8.10;1.00
9410;DHT22;4744;52.576;13.568;2023-03-21T06:26:43;8.10;1.00
9410;DHT22;4744;52.576;13.568;2023-03-21T06:29:12;8.20;1.00
9410;DHT22;4744;52.576;13.568;2023-03-21T06:31:39;8.10;1.00
9410;DHT22;4744;52.576;13.568;2023-03-21T06:34:06;8.10;1.00
9410;DHT22;4744;52.576;13.568;2023-03-21T06:36:34;8.20;1.00
9410;DHT22;4744;52.576;13.568;2023-03-21T06:39:01;8.20;1.00
9410;DHT22;4744;52.576;13.568;2023-03-21T06:41:28;8.20;1.00
9410;DHT22;4744;52.576;13.568;2023-03-21T06:43:55;8.20;1.00
9410;DHT22;4744;52.576;13.568;2023-03-21T06:46:24;8.20;1.00
9410;DHT22;4744;52.576;13.568;2023-03-21T06:48:51;8.20;1.00
9410;DHT22;4744;52.576;13.568;2023-03-21T06:51:17;8.20;1.00
9410;DHT22;4744;52.576;13.568;2023-03-21T06:53:44;8.20;1.00
9410;DHT22;4744;52.576;13.568;2023-03-21T06:56:13;8.20;1.00
9410;DHT22;4744;52.576;13.568;2023-03-21T06:58:40;8.20;1.00
9410;DHT22;4744;52.576;13.568;2023-03-21T07:01:07;8.30;1.00
9410;DHT22;4744;52.576;13.568;2023-03-21T07:03:35;8.40;1.00
9410;DHT22;4744;52.576;13.568;2023-03-21T07:06:05;8.40;1.00
9410;DHT22;4744;52.576;13.568;2023-03-21T07:08:33;8.50;1.00
9410;DHT22;4744;52.576;13.568;2023-03-21T07:11:00;8.50;1.00
9410;DHT22;4744;52.576;13.568;2023-03-21T07:13:27;8.60;1.00
9410;DHT22;4744;52.576;13.568;2023-03-21T07:15:54;8.60;1.00
9410;DHT22;4744;52.576;13.568;2023-03-21T07:18:21;8.60;1.00
9410;DHT22;4744;52.576;13.568;2023-03-21T07:20:50;8.60;1.00
9410;DHT22;4744;52.576;13.568;2023-03-21T07:23:17;8.60;1.00
9410;DHT22;4744;52.576;13.568;2023-03-21T07:25:46;8.60;1.00
9410;DHT22;4744;52.576;13.568;2023-03-21T07:28:13;8.60;1.00
9410;DHT22;4744;52.576;13.568;2023-03-21T07:30:40;8.70;1.00
9410;DHT22;4744;52.576;13.568;2023-03-21T07:33:07;8.80;1.00
9410;DHT22;4744;52.576;13.568;2023-03-21T07:35:35;8.70;1.00
9410;DHT22;4744;52.576;13.568;2023-03-21T07:38:03;8.70;1.00
9410;DHT22;4744;52.576;13.568;2023-03-21T07:40:30;8.70;1.00
9410;DHT22;4744;52.576;13.568;2023-03-21T07:42:57;8.70;1.00
9410;DHT22;4744;52.576;13.568;2023-03-21T07:45:24;8.60;1.00
9410;DHT22;4744;52.576;13.568;2023-03-21T07:47:52;8.60;1.00
9410;DHT22;4744;52.576;13.568;2023-03-21T07:50:18;8.50;1.00
9410;DHT22;4744;52.576;13.568;2023-03-21T07:52:46;8.50;1.00
9410;DHT22;4744;52.576;13.568;2023-03-21T07:55:14;8.50;1.00
9410;DHT22;4744;52.576;13.568;2023-03-21T07:57:42;8.50;1.00
9410;DHT22;4744;52.576;13.568;2023-03-21T08:00:10;8.50;1.00
9410;DHT22;4744;52.576;13.568;2023-03-21T08:02:38;8.50;1.00
9410;DHT22;4744;52.576;13.568;2023-03-21T08:05:05;8.60;1.00
9410;DHT22;4744;52.576;13.568;2023-03-21T08:07:32;8.60;1.00
9410;DHT22;4744;52.576;13.568;2023-03-21T08:09:59;8.60;1.00
9410;DHT22;4744;52.576;13.568;2023-03-21T08:12:27;8.60;1.00
9410;DHT22;4744;52.576;13.568;2023-03-21T08:14:54;8.70;1.00
9410;DHT22;4744;52.576;13.568;2023-03-21T08:17:21;8.70;1.00
9410;DHT22;4744;52.576;13.568;2023-03-21T08:19:48;8.70;1.00
9410;DHT22;4744;52.576;13.568;2023-03-21T08:22:15;8.70;1.00
9410;DHT22;4744;52.576;13.568;2023-03-21T08:24:42;8.70;1.00
9410;DHT22;4744;52.576;13.568;2023-03-21T08:27:09;8.80;1.00
9410;DHT22;4744;52.576;13.568;2023-03-21T08:29:37;8.80;1.00
9410;DHT22;4744;52.576;13.568;2023-03-21T08:32:06;8.80;1.00
9410;DHT22;4744;52.576;13.568;2023-03-21T08:34:33;8.80;1.00
9410;DHT22;4744;52.576;13.568;2023-03-21T08:37:01;8.90;1.00
9410;DHT22;4744;52.576;13.568;2023-03-21T08:39:28;9.00;1.00
9410;DHT22;4744;52.576;13.568;2023-03-21T08:41:55;9.00;1.00
9410;DHT22;4744;52.576;13.568;2023-03-21T08:44:22;9.00;1.00
9410;DHT22;4744;52.576;13.568;2023-03-21T08:46:51;9.00;1.00
9410;DHT22;4744;52.576;13.568;2023-03-21T08:49:18;9.00;1.00
9410;DHT22;4744;52.576;13.568;2023-03-21T08:51:45;9.10;1.00
9410;DHT22;4744;52.576;13.568;2023-03-21T08:54:18;9.10;1.00
9410;DHT22;4744;52.576;13.568;2023-03-21T08:56:46;9.10;1.00
9410;DHT22;4744;52.576;13.568;2023-03-21T08:59:13;9.10;1.00
9410;DHT22;4744;52.576;13.568;2023-03-21T09:01:40;9.00;1.00
9410;DHT22;4744;52.576;13.568;2023-03-21T09:04:08;9.00;1.00
9410;DHT22;4744;52.576;13.568;2023-03-21T09:06:35;9.00;1.00
9410;DHT22;4744;52.576;13.568;2023-03-21T09:09:03;9.10;1.00
9410;DHT22;4744;52.576;13.568;2023-03-21T09:11:32;9.10;1.00
9410;DHT22;4744;52.576;13.568;2023-03-21T09:13:59;9.10;1.00
9410;DHT22;4744;52.576;13.568;2023-03-21T09:16:26;9.10;1.00
9410;DHT22;4744;52.576;13.568;2023-03-21T09:18:53;9.10;1.00
9410;DHT22;4744;52.576;13.568;2023-03-21T09:21:26;9.10;1.00
9410;DHT22;4744;52.576;13.568;2023-03-21T09:23:53;9.10;1.00
9410;DHT22;4744;52.576;13.568;2023-03-21T09:26:24;9.10;1.00
9410;DHT22;4744;52.576;13.568;2023-03-21T09:28:52;9.10;1.00
9410;DHT22;4744;52.576;13.568;2023-03-21T09:31:19;9.20;1.00
9410;DHT22;4744;52.576;13.568;2023-03-21T09:33:47;9.20;1.00
9410;DHT22;4744;52.576;13.568;2023-03-21T09:36:49;9.20;1.00
9410;DHT22;4744;52.576;13.568;2023-03-21T09:39:16;9.20;1.00
9410;DHT22;4744;52.576;13.568;2023-03-21T09:42:02;9.20;1.00
9410;DHT22;4744;52.576;13.568;2023-03-21T09:44:45;9.30;1.00
9410;DHT22;4744;52.576;13.568;2023-03-21T09:47:17;9.40;1.00
9410;DHT22;4744;52.576;13.568;2023-03-21T09:49:49;9.50;1.00
9410;DHT22;4744;52.576;13.568;2023-03-21T09:52:22;9.50;1.00
9410;DHT22;4744;52.576;13.568;2023-03-21T09:54:50;9.60;1.00
9410;DHT22;4744;52.576;13.568;2023-03-21T09:57:30;9.50;1.00
9410;DHT22;4744;52.576;13.568;2023-03-21T10:00:02;9.60;1.00
9410;DHT22;4744;52.576;13.568;2023-03-21T10:02:36;9.60;1.00
9410;DHT22;4744;52.576;13.568;2023-03-21T10:05:12;9.60;1.00
9410;DHT22;4744;52.576;13.568;2023-03-21T10:07:47;9.60;1.00
9410;DHT22;4744;52.576;13.568;2023-03-21T10:10:20;9.60;1.00
9410;DHT22;4744;52.576;13.568;2023-03-21T10:12:51;9.70;1.00
9410;DHT22;4744;52.576;13.568;2023-03-21T10:15:20;9.70;1.00
9410;DHT22;4744;52.576;13.568;2023-03-21T10:17:55;9.70;1.00
9410;DHT22;4744;52.576;13.568;2023-03-21T10:20:25;9.70;1.00
9410;DHT22;4744;52.576;13.568;2023-03-21T10:22:54;9.70;1.00
9410;DHT22;4744;52.576;13.568;2023-03-21T10:25:27;9.70;1.00
9410;DHT22;4744;52.576;13.568;2023-03-21T10:27:54;9.80;1.00
9410;DHT22;4744;52.576;13.568;2023-03-21T10:30:29;9.80;1.00
9410;DHT22;4744;52.576;13.568;2023-03-21T10:32:59;9.70;1.00
9410;DHT22;4744;52.576;13.568;2023-03-21T10:35:29;9.80;1.00
9410;DHT22;4744;52.576;13.568;2023-03-21T10:37:59;9.90;1.00
9410;DHT22;4744;52.576;13.568;2023-03-21T10:40:26;9.90;1.00
9410;DHT22;4744;52.576;13.568;2023-03-21T10:42:54;10.00;1.00
9410;DHT22;4744;52.576;13.568;2023-03-21T10:45:22;10.10;1.00
9410;DHT22;4744;52.576;13.568;2023-03-21T10:47:50;10.00;1.00
9410;DHT22;4744;52.576;13.568;2023-03-21T10:50:18;10.10;1.00
9410;DHT22;4744;52.576;13.568;2023-03-21T10:52:54;10.20;1.00
9410;DHT22;4744;52.576;13.568;2023-03-21T10:55:27;10.20;1.00
9410;DHT22;4744;52.576;13.568;2023-03-21T10:57:59;10.40;1.00
9410;DHT22;4744;52.576;13.568;2023-03-21T11:00:29;10.40;1.00
9410;DHT22;4744;52.576;13.568;2023-03-21T11:03:00;10.40;1.00
9410;DHT22;4744;52.576;13.568;2023-03-21T11:05:34;10.40;1.00
9410;DHT22;4744;52.576;13.568;2023-03-21T11:08:03;10.50;1.00
9410;DHT22;4744;52.576;13.568;2023-03-21T11:10:34;10.50;1.00
9410;DHT22;4744;52.576;13.568;2023-03-21T11:13:05;10.50;1.00
9410;DHT22;4744;52.576;13.568;2023-03-21T11:15:40;10.60;1.00
9410;DHT22;4744;52.576;13.568;2023-03-21T11:18:17;10.60;1.00
9410;DHT22;4744;52.576;13.568;2023-03-21T11:20:49;10.60;1.00
9410;DHT22;4744;52.576;13.568;2023-03-21T11:23:17;10.60;1.00
9410;DHT22;4744;52.576;13.568;2023-03-21T11:25:47;10.50;1.00
9410;DHT22;4744;52.576;13.568;2023-03-21T11:28:16;10.60;1.00
9410;DHT22;4744;52.576;13.568;2023-03-21T11:30:52;10.60;1.00
9410;DHT22;4744;52.576;13.568;2023-03-21T11:33:22;10.60;1.00
9410;DHT22;4744;52.576;13.568;2023-03-21T11:35:59;10.60;1.00
9410;DHT22;4744;52.576;13.568;2023-03-21T11:38:30;10.60;1.00
9410;DHT22;4744;52.576;13.568;2023-03-21T11:41:01;10.50;1.00
9410;DHT22;4744;52.576;13.568;2023-03-21T11:43:30;10.50;1.00
9410;DHT22;4744;52.576;13.568;2023-03-21T11:45:59;10.50;1.00
9410;DHT22;4744;52.576;13.568;2023-03-21T11:48:27;10.50;1.00
9410;DHT22;4744;52.576;13.568;2023-03-21T11:50:59;10.50;1.00
9410;DHT22;4744;52.576;13.568;2023-03-21T11:53:35;10.60;1.00
9410;DHT22;4744;52.576;13.568;2023-03-21T11:56:24;10.60;1.00
9410;DHT22;4744;52.576;13.568;2023-03-21T11:59:11;10.50;1.00
9410;DHT22;4744;52.576;13.568;2023-03-21T12:01:50;10.60;1.00
9410;DHT22;4744;52.576;13.568;2023-03-21T12:04:36;10.60;1.00
9410;DHT22;4744;52.576;13.568;2023-03-21T12:07:18;10.60;1.00
9410;DHT22;4744;52.576;13.568;2023-03-21T12:09:53;10.60;1.00
9410;DHT22;4744;52.576;13.568;2023-03-21T12:12:32;10.70;1.00
9410;DHT22;4744;52.576;13.568;2023-03-21T12:15:07;10.70;1.00
9410;DHT22;4744;52.576;13.568;2023-03-21T12:17:46;10.70;1.00
9410;DHT22;4744;52.576;13.568;2023-03-21T12:20:25;10.90;1.00
9410;DHT22;4744;52.576;13.568;2023-03-21T12:23:06;11.00;1.00
9410;DHT22;4744;52.576;13.568;2023-03-21T12:25:40;11.10;1.00
9410;DHT22;4744;52.576;13.568;2023-03-21T12:28:21;11.10;1.00
9410;DHT22;4744;52.576;13.568;2023-03-21T12:30:57;11.10;1.00
9410;DHT22;4744;52.576;13.568;2023-03-21T12:33:39;11.20;1.00
9410;DHT22;4744;52.576;13.568;2023-03-21T12:36:18;11.10;1.00
9410;DHT22;4744;52.576;13.568;2023-03-21T12:38:56;11.30;1.00
9410;DHT22;4744;52.576;13.568;2023-03-21T12:41:26;11.30;1.00
9410;DHT22;4744;52.576;13.568;2023-03-21T12:44:00;11.30;1.00
9410;DHT22;4744;52.576;13.568;2023-03-21T12:46:33;11.30;1.00
9410;DHT22;4744;52.576;13.568;2023-03-21T12:49:06;11.20;1.00
9410;DHT22;4744;52.576;13.568;2023-03-21T12:51:37;11.30;1.00
9410;DHT22;4744;52.576;13.568;2023-03-21T12:54:13;11.20;1.00
9410;DHT22;4744;52.576;13.568;2023-03-21T12:56:48;11.30;1.00
9410;DHT22;4744;52.576;13.568;2023-03-21T12:59:26;11.20;1.00
9410;DHT22;4744;52.576;13.568;2023-03-21T13:01:58;11.20;1.00
9410;DHT22;4744;52.576;13.568;2023-03-21T13:04:43;11.20;1.00
9410;DHT22;4744;52.576;13.568;2023-03-21T13:07:14;11.10;1.00
9410;DHT22;4744;52.576;13.568;2023-03-21T13:09:44;11.10;1.00
9410;DHT22;4744;52.576;13.568;2023-03-21T13:12:32;11.10;1.00
9410;DHT22;4744;52.576;13.568;2023-03-21T13:15:13;11.10;1.00
9410;DHT22;4744;52.576;13.568;2023-03-21T13:17:48;11.10;1.00
9410;DHT22;4744;52.576;13.568;2023-03-21T13:20:24;11.20;1.00
9410;DHT22;4744;52.576;13.568;2023-03-21T13:22:52;11.20;1.00
9410;DHT22;4744;52.576;13.568;2023-03-21T13:25:21;11.30;1.00
9410;DHT22;4744;52.576;13.568;2023-03-21T13:27:52;11.20;1.00
9410;DHT22;4744;52.576;13.568;2023-03-21T13:30:23;11.30;1.00
9410;DHT22;4744;52.576;13.568;2023-03-21T13:32:55;11.30;1.00
9410;DHT22;4744;52.576;13.568;2023-03-21T13:35:33;11.30;1.00
9410;DHT22;4744;52.576;13.568;2023-03-21T13:38:05;11.40;1.00
9410;DHT22;4744;52.576;13.568;2023-03-21T13:40:37;11.40;1.00
9410;DHT22;4744;52.576;13.568;2023-03-21T13:43:34;11.40;1.00
9410;DHT22;4744;52.576;13.568;2023-03-21T13:46:08;11.50;1.00
9410;DHT22;4744;52.576;13.568;2023-03-21T13:48:44;11.50;1.00
9410;DHT22;4744;52.576;13.568;2023-03-21T13:51:38;11.40;1.00
9410;DHT22;4744;52.576;13.568;2023-03-21T13:54:17;11.50;1.00
9410;DHT22;4744;52.576;13.568;2023-03-21T13:56:50;11.50;1.00
9410;DHT22;4744;52.576;13.568;2023-03-21T13:59:18;11.50;1.00
9410;DHT22;4744;52.576;13.568;2023-03-21T14:02:15;11.50;1.00
9410;DHT22;4744;52.576;13.568;2023-03-21T14:04:44;11.50;1.00
9410;DHT22;4744;52.576;13.568;2023-03-21T14:07:15;11.40;1.00
9410;DHT22;4744;52.576;13.568;2023-03-21T14:09:48;11.40;1.00
9410;DHT22;4744;52.576;13.568;2023-03-21T14:12:18;11.40;1.00
9410;DHT22;4744;52.576;13.568;2023-03-21T14:14:48;11.50;1.00
9410;DHT22;4744;52.576;13.568;2023-03-21T14:17:23;11.60;1.00
9410;DHT22;4744;52.576;13.568;2023-03-21T14:19:51;11.60;1.00
9410;DHT22;4744;52.576;13.568;2023-03-21T14:22:18;11.60;1.00
9410;DHT22;4744;52.576;13.568;2023-03-21T14:24:53;11.60;1.00
9410;DHT22;4744;52.576;13.568;2023-03-21T14:27:21;11.70;1.00
9410;DHT22;4744;52.576;13.568;2023-03-21T14:29:48;11.70;1.00
9410;DHT22;4744;52.576;13.568;2023-03-21T14:32:22;11.80;1.00
9410;DHT22;4744;52.576;13.568;2023-03-21T14:34:51;11.80;1.00
9410;DHT22;4744;52.576;13.568;2023-03-21T14:37:30;11.80;1.00
9410;DHT22;4744;52.576;13.568;2023-03-21T14:39:59;11.90;1.00
9410;DHT22;4744;52.576;13.568;2023-03-21T14:42:27;11.90;1.00
9410;DHT22;4744;52.576;13.568;2023-03-21T14:44:54;11.90;1.00
9410;DHT22;4744;52.576;13.568;2023-03-21T14:47:27;12.00;1.00
9410;DHT22;4744;52.576;13.568;2023-03-21T14:49:57;11.90;1.00
9410;DHT22;4744;52.576;13.568;2023-03-21T14:52:29;12.00;1.00
9410;DHT22;4744;52.576;13.568;2023-03-21T14:54:57;11.90;1.00
9410;DHT22;4744;52.576;13.568;2023-03-21T14:57:26;11.90;1.00
9410;DHT22;4744;52.576;13.568;2023-03-21T14:59:56;11.90;1.00
9410;DHT22;4744;52.576;13.568;2023-03-21T15:02:29;11.80;1.00
9410;DHT22;4744;52.576;13.568;2023-03-21T15:05:04;11.80;1.00
9410;DHT22;4744;52.576;13.568;2023-03-21T15:07:33;11.90;1.00
9410;DHT22;4744;52.576;13.568;2023-03-21T15:10:03;11.90;1.00
9410;DHT22;4744;52.576;13.568;2023-03-21T15:12:31;11.90;1.00
9410;DHT22;4744;52.576;13.568;2023-03-21T15:14:59;12.00;1.00
9410;DHT22;4744;52.576;13.568;2023-03-21T15:17:28;12.10;1.00
9410;DHT22;4744;52.576;13.568;2023-03-21T15:19:55;12.10;1.00
9410;DHT22;4744;52.576;13.568;2023-03-21T15:22:29;12.10;1.00
9410;DHT22;4744;52.576;13.568;2023-03-21T15:24:58;12.20;1.00
9410;DHT22;4744;52.576;13.568;2023-03-21T15:27:28;12.20;1.00
9410;DHT22;4744;52.576;13.568;2023-03-21T15:29:56;12.20;1.00
9410;DHT22;4744;52.576;13.568;2023-03-21T15:32:25;12.20;1.00
9410;DHT22;4744;52.576;13.568;2023-03-21T15:35:03;12.20;1.00
9410;DHT22;4744;52.576;13.568;2023-03-21T15:37:33;12.20;1.00
9410;DHT22;4744;52.576;13.568;2023-03-21T15:40:09;12.10;1.00
9410;DHT22;4744;52.576;13.568;2023-03-21T15:42:38;12.10;1.00
9410;DHT22;4744;52.576;13.568;2023-03-21T15:45:14;12.10;1.00
9410;DHT22;4744;52.576;13.568;2023-03-21T15:47:51;12.10;1.00
9410;DHT22;4744;52.576;13.568;2023-03-21T15:50:35;12.00;1.00
9410;DHT22;4744;52.576;13.568;2023-03-21T15:53:04;12.00;1.00
9410;DHT22;4744;52.576;13.568;2023-03-21T15:55:38;12.10;1.00
9410;DHT22;4744;52.576;13.568;2023-03-21T15:58:12;12.10;1.00
9410;DHT22;4744;52.576;13.568;2023-03-21T16:00:42;12.10;1.00
9410;DHT22;4744;52.576;13.568;2023-03-21T16:03:14;12.20;1.00
9410;DHT22;4744;52.576;13.568;2023-03-21T16:06:03;12.20;1.00
9410;DHT22;4744;52.576;13.568;2023-03-21T16:08:32;12.10;1.00
9410;DHT22;4744;52.576;13.568;2023-03-21T16:11:06;12.20;1.00
9410;DHT22;4744;52.576;13.568;2023-03-21T16:13:33;12.10;1.00
9410;DHT22;4744;52.576;13.568;2023-03-21T16:16:00;12.10;1.00
9410;DHT22;4744;52.576;13.568;2023-03-21T16:18:27;12.10;1.00
9410;DHT22;4744;52.576;13.568;2023-03-21T16:20:57;12.10;1.00
9410;DHT22;4744;52.576;13.568;2023-03-21T16:23:24;12.20;1.00
9410;DHT22;4744;52.576;13.568;2023-03-21T16:25:52;12.20;1.00
9410;DHT22;4744;52.576;13.568;2023-03-21T16:28:22;12.10;1.00
9410;DHT22;4744;52.576;13.568;2023-03-21T16:30:49;12.10;1.00
9410;DHT22;4744;52.576;13.568;2023-03-21T16:33:16;12.10;1.00
9410;DHT22;4744;52.576;13.568;2023-03-21T16:35:43;12.20;1.00
9410;DHT22;4744;52.576;13.568;2023-03-21T16:38:12;12.10;1.00
9410;DHT22;4744;52.576;13.568;2023-03-21T16:40:40;12.10;1.00
9410;DHT22;4744;52.576;13.568;2023-03-21T16:43:07;12.10;1.00
9410;DHT22;4744;52.576;13.568;2023-03-21T16:45:34;12.10;1.00